This is the latest recevied weather packets stored in our database for station/object SQ2CDE-4. If no packets are shown the sender has not sent any weather packets the latest 10 day(s).
| Time | Temp. | Humidity | Pressure | Rain* | Wind** | Luminosity | Snow |
|---|---|---|---|---|---|---|---|
| 1777877273 | 18.89° C | 52% | 1009 hPa | - | - | - | - |
| 1777876670 | 18.89° C | 52% | 1009 hPa | - | - | - | - |
| 1777876067 | 17.22° C | 52% | 1009 hPa | - | - | - | - |
| 1777875464 | 17.22° C | 52% | 1009 hPa | - | - | - | - |
| 1777874861 | 17.22° C | 52% | 1009 hPa | - | - | - | - |
| 1777874258 | 16.11° C | 55% | 1008 hPa | - | - | - | - |
| 1777873655 | 16.11° C | 55% | 1008 hPa | - | - | - | - |
| 1777873051 | 16.11° C | 55% | 1008 hPa | - | - | - | - |
| 1777872449 | 13.89° C | 67% | 1008 hPa | - | - | - | - |
| 1777871846 | 13.89° C | 67% | 1008 hPa | - | - | - | - |
| 1777871242 | 13.89° C | 67% | 1008 hPa | - | - | - | - |
| 1777870639 | 12.22° C | 71% | 1008 hPa | - | - | - | - |
| 1777870037 | 12.22° C | 71% | 1008 hPa | - | - | - | - |
| 1777869434 | 12.22° C | 71% | 1008 hPa | - | - | - | - |
| 1777868831 | 12.22° C | 67% | 1008 hPa | - | - | - | - |
| 1777868228 | 12.22° C | 67% | 1008 hPa | - | - | - | - |
| 1777867625 | 12.22° C | 67% | 1008 hPa | - | - | - | - |
| 1777867022 | 10° C | 71% | 1008 hPa | - | - | - | - |
| 1777866419 | 10° C | 71% | 1008 hPa | - | - | - | - |
| 1777865816 | 10° C | 71% | 1008 hPa | - | - | - | - |
| 1777865213 | 8.89° C | 76% | 1008 hPa | - | - | - | - |
| 1777864610 | 8.89° C | 76% | 1008 hPa | - | - | - | - |
| 1777864006 | 8.89° C | 76% | 1008 hPa | - | - | - | - |
| 1777863403 | 8.89° C | 76% | 1008 hPa | - | - | - | - |
| 1777862800 | 8.89° C | 76% | 1008 hPa | - | - | - | - |
* Rain since midnight (hover to see other rain measurements)
** Current wind speed in m/s (hover to see current wind gust speed)